地図

経路データ

SID SEASON NUMBER BASIN SUBBASIN NAME ISO_TIME NATURE LAT LON WMO_WIND WMO_PRES WMO_AGENCY TRACK_TYPE DIST2LAND LANDFALL IFLAG USA_AGENCY USA_ATCF_ID USA_LAT USA_LON USA_RECORD USA_STATUS USA_WIND USA_PRES USA_SSHS USA_R34_NE USA_R34_SE USA_R34_SW USA_R34_NW USA_R50_NE USA_R50_SE USA_R50_SW USA_R50_NW USA_R64_NE USA_R64_SE USA_R64_SW USA_R64_NW USA_POCI USA_ROCI USA_RMW USA_EYE TOKYO_LAT TOKYO_LON TOKYO_GRADE TOKYO_WIND TOKYO_PRES TOKYO_R50_DIR TOKYO_R50_LONG TOKYO_R50_SHORT TOKYO_R30_DIR TOKYO_R30_LONG TOKYO_R30_SHORT TOKYO_LAND CMA_LAT CMA_LON CMA_CAT CMA_WIND CMA_PRES HKO_LAT HKO_LON HKO_CAT HKO_WIND HKO_PRES NEWDELHI_LAT NEWDELHI_LON NEWDELHI_GRADE NEWDELHI_WIND NEWDELHI_PRES NEWDELHI_CI NEWDELHI_DP NEWDELHI_POCI REUNION_LAT REUNION_LON REUNION_TYPE REUNION_WIND REUNION_PRES REUNION_TNUM REUNION_CI REUNION_RMW REUNION_R34_NE REUNION_R34_SE REUNION_R34_SW REUNION_R34_NW REUNION_R50_NE REUNION_R50_SE REUNION_R50_SW REUNION_R50_NW REUNION_R64_NE REUNION_R64_SE REUNION_R64_SW REUNION_R64_NW BOM_LAT BOM_LON BOM_TYPE BOM_WIND BOM_PRES BOM_TNUM BOM_CI BOM_RMW BOM_R34_NE BOM_R34_SE BOM_R34_SW BOM_R34_NW BOM_R50_NE BOM_R50_SE BOM_R50_SW BOM_R50_NW BOM_R64_NE BOM_R64_SE BOM_R64_SW BOM_R64_NW BOM_ROCI BOM_POCI BOM_EYE BOM_POS_METHOD BOM_PRES_METHOD NADI_LAT NADI_LON NADI_CAT NADI_WIND NADI_PRES WELLINGTON_LAT WELLINGTON_LON WELLINGTON_WIND WELLINGTON_PRES DS824_LAT DS824_LON DS824_STAGE DS824_WIND DS824_PRES TD9636_LAT TD9636_LON TD9636_STAGE TD9636_WIND TD9636_PRES TD9635_LAT TD9635_LON TD9635_WIND TD9635_PRES TD9635_ROCI NEUMANN_LAT NEUMANN_LON NEUMANN_CLASS NEUMANN_WIND NEUMANN_PRES MLC_LAT MLC_LON MLC_CLASS MLC_WIND MLC_PRES USA_GUST BOM_GUST BOM_GUST_PER REUNION_GUST REUNION_GUST_PER USA_SEAHGT USA_SEARAD_NE USA_SEARAD_SE USA_SEARAD_SW USA_SEARAD_NW STORM_SPEED STORM_DIR
1935122S14154 1935 26 SP EA NOT_NAMED 1935-05-01 12:00:00 NR -14.1000 153.900 main 523 523 __________O___ -1 -14.1000 153.900 7 1 0
1935122S14154 1935 26 SP EA NOT_NAMED 1935-05-01 15:00:00 NR -14.1437 153.909 main 523 523 __________P___ -1 -14.1437 153.909 7 2 0
1935122S14154 1935 26 SP EA NOT_NAMED 1935-05-01 18:00:00 NR -14.2599 153.914 main 540 540 __________P___ -1 -14.2599 153.914 7 4 0
1935122S14154 1935 26 SP EA NOT_NAMED 1935-05-01 21:00:00 NR -14.5211 153.912 main 558 558 __________P___ -1 -14.5211 153.912 7 7 181
1935122S14154 1935 26 SP EA NOT_NAMED 1935-05-02 00:00:00 NR -15.0000 153.900 main 602 602 __________O___ -1 -15.0000 153.900 7 12 181
1935122S14154 1935 26 SP EA NOT_NAMED 1935-05-02 03:00:00 NR -15.7435 153.879 main 667 667 __________P___ -1 -15.7435 153.879 7 17 182
1935122S14154 1935 26 SP EA NOT_NAMED 1935-05-02 06:00:00 NR -16.6956 153.870 main 671 609 __________P___ -1 -16.6956 153.870 7 20 0
1935122S14154 1935 26 SP EA NOT_NAMED 1935-05-02 09:00:00 NR -17.7748 153.902 main 604 529 __________P___ -1 -17.7748 153.902 7 22 177
1935122S14154 1935 26 SP EA NOT_NAMED 1935-05-02 12:00:00 NR -18.9000 154.000 main 520 449 __________O___ -1 -18.9000 154.000 7 23 172
1935122S14154 1935 26 SP EA NOT_NAMED 1935-05-02 15:00:00 NR -20.0843 154.231 main 442 407 __________P___ -1 -20.0843 154.231 7 24 168
1935122S14154 1935 26 SP EA NOT_NAMED 1935-05-02 18:00:00 NR -21.2752 154.529 main 404 318 __________P___ -1 -21.2752 154.529 7 24 166
1935122S14154 1935 26 SP EA NOT_NAMED 1935-05-02 21:00:00 NR -22.3535 154.838 main 308 255 __________P___ -1 -22.3535 154.838 7 20 165
1935122S14154 1935 26 SP EA NOT_NAMED 1935-05-03 00:00:00 NR -23.2000 155.100 main 255 228 __________O___ -1 -23.2000 155.100 7 14 165
1935122S14154 1935 26 SP EA NOT_NAMED 1935-05-03 03:00:00 NR -23.6727 155.231 main 228 226 __________P___ -1 -23.6727 155.231 7 7 165
1935122S14154 1935 26 SP EA NOT_NAMED 1935-05-03 06:00:00 NR -23.9116 155.305 main 226 221 __________P___ -1 -23.9116 155.305 7 4 162
1935122S14154 1935 26 SP EA NOT_NAMED 1935-05-03 09:00:00 NR -24.0198 155.352 main 230 225 __________P___ -1 -24.0198 155.352 7 2 154
1935122S14154 1935 26 SP EA NOT_NAMED 1935-05-03 12:00:00 NR -24.1000 155.400 main 225 220 __________O___ -1 -24.1000 155.400 7 3 157
1935122S14154 1935 26 SP EA NOT_NAMED 1935-05-03 15:00:00 NR -24.2501 155.458 main 226 222 __________P___ -1 -24.2501 155.458 7 3 159
1935122S14154 1935 26 SP EA NOT_NAMED 1935-05-03 18:00:00 NR -24.4021 155.527 main 222 222 __________P___ -1 -24.4021 155.527 7 4 156
1935122S14154 1935 26 SP EA NOT_NAMED 1935-05-03 21:00:00 NR -24.6031 155.633 main 226 226 __________P___ -1 -24.6031 155.633 7 6 154
1935122S14154 1935 26 SP EA NOT_NAMED 1935-05-04 00:00:00 NR -24.9000 155.800 main 242 241 __________O___ -1 -24.9000 155.800 7 8 154
1935122S14154 1935 26 SP EA NOT_NAMED 1935-05-04 03:00:00 NR -25.3370 156.028 main 263 263 __________P___ -1 -25.3370 156.028 7 11 154
1935122S14154 1935 26 SP EA NOT_NAMED 1935-05-04 06:00:00 NR -25.8721 156.324 main 307 307 __________P___ -1 -25.8721 156.324 7 13 153
1935122S14154 1935 26 SP EA NOT_NAMED 1935-05-04 09:00:00 NR -26.4711 156.682 main 353 351 __________P___ -1 -26.4711 156.682 7 14 150
1935122S14154 1935 26 SP EA NOT_NAMED 1935-05-04 12:00:00 NR -27.1000 157.100 main 365 361 __________O___ -1 -27.1000 157.100 7 15 148
1935122S14154 1935 26 SP EA NOT_NAMED 1935-05-04 15:00:00 NR -27.7304 157.572 main 396 394 __________P___ -1 -27.7304 157.572 7 15 145
1935122S14154 1935 26 SP EA NOT_NAMED 1935-05-04 18:00:00 NR -28.3570 158.087 main 439 439 __________P___ -1 -28.3570 158.087 7 16 143
1935122S14154 1935 26 SP EA NOT_NAMED 1935-05-04 21:00:00 NR -28.9801 158.634 main 485 485 __________P___ -1 -28.9801 158.634 7 16 142
1935122S14154 1935 26 SP EA NOT_NAMED 1935-05-05 00:00:00 NR -29.6000 159.200 main 548 __________O___ -1 -29.6000 159.200 7 16 141

デジタル台風データ・検索

IBTrACS Databaseについて

本データベースは、米国NOAAが公開する1842年以降の世界の熱帯低気圧のベストトラックデータアーカイブInternational Best Track Archive for Climate Stewardship (IBTrACS)を、ウェブで閲覧しやすい形式に変換したものです。

最終更新日:2021-10-21